sensor_id;sensor_type;location;lat;lon;timestamp;P1;durP1;ratioP1;P2;durP2;ratioP2
78856;SDS011;68207;50.078;19.936;2023-05-07T00:00:07;14.30;;;10.30;;
78856;SDS011;68207;50.078;19.936;2023-05-07T00:02:33;14.80;;;10.30;;
78856;SDS011;68207;50.078;19.936;2023-05-07T00:04:59;15.40;;;9.80;;
78856;SDS011;68207;50.078;19.936;2023-05-07T00:07:24;17.60;;;10.10;;
78856;SDS011;68207;50.078;19.936;2023-05-07T00:09:49;14.00;;;10.10;;
78856;SDS011;68207;50.078;19.936;2023-05-07T00:12:15;11.90;;;9.10;;
78856;SDS011;68207;50.078;19.936;2023-05-07T00:14:40;16.60;;;10.30;;
78856;SDS011;68207;50.078;19.936;2023-05-07T00:17:06;16.50;;;9.80;;
78856;SDS011;68207;50.078;19.936;2023-05-07T00:19:31;16.20;;;9.90;;
78856;SDS011;68207;50.078;19.936;2023-05-07T00:21:57;14.00;;;9.80;;
78856;SDS011;68207;50.078;19.936;2023-05-07T00:24:23;14.40;;;9.40;;
78856;SDS011;68207;50.078;19.936;2023-05-07T00:26:49;13.40;;;8.90;;
78856;SDS011;68207;50.078;19.936;2023-05-07T00:29:14;12.10;;;9.20;;
78856;SDS011;68207;50.078;19.936;2023-05-07T00:31:40;14.10;;;10.20;;
78856;SDS011;68207;50.078;19.936;2023-05-07T00:34:05;14.00;;;9.70;;
78856;SDS011;68207;50.078;19.936;2023-05-07T00:36:31;16.10;;;10.70;;
78856;SDS011;68207;50.078;19.936;2023-05-07T00:38:58;13.30;;;9.40;;
78856;SDS011;68207;50.078;19.936;2023-05-07T00:41:25;12.10;;;8.80;;
78856;SDS011;68207;50.078;19.936;2023-05-07T00:43:50;13.20;;;9.60;;
78856;SDS011;68207;50.078;19.936;2023-05-07T00:46:16;15.70;;;10.00;;
78856;SDS011;68207;50.078;19.936;2023-05-07T00:48:42;13.60;;;10.50;;
78856;SDS011;68207;50.078;19.936;2023-05-07T00:51:09;17.70;;;11.00;;
78856;SDS011;68207;50.078;19.936;2023-05-07T00:53:36;14.60;;;10.10;;
78856;SDS011;68207;50.078;19.936;2023-05-07T00:56:01;15.20;;;10.20;;
78856;SDS011;68207;50.078;19.936;2023-05-07T00:58:27;13.20;;;9.60;;
78856;SDS011;68207;50.078;19.936;2023-05-07T01:00:52;14.80;;;10.10;;
78856;SDS011;68207;50.078;19.936;2023-05-07T01:03:17;14.40;;;9.80;;
78856;SDS011;68207;50.078;19.936;2023-05-07T01:05:43;16.40;;;10.50;;
78856;SDS011;68207;50.078;19.936;2023-05-07T01:08:12;15.10;;;10.00;;
78856;SDS011;68207;50.078;19.936;2023-05-07T01:10:39;17.30;;;10.60;;
78856;SDS011;68207;50.078;19.936;2023-05-07T01:13:07;15.10;;;9.70;;
78856;SDS011;68207;50.078;19.936;2023-05-07T01:15:35;17.10;;;10.40;;
78856;SDS011;68207;50.078;19.936;2023-05-07T01:18:00;15.70;;;10.50;;
78856;SDS011;68207;50.078;19.936;2023-05-07T01:20:25;14.30;;;9.50;;
78856;SDS011;68207;50.078;19.936;2023-05-07T01:22:52;16.00;;;11.10;;
78856;SDS011;68207;50.078;19.936;2023-05-07T01:25:18;14.80;;;10.80;;
78856;SDS011;68207;50.078;19.936;2023-05-07T01:27:43;15.70;;;10.80;;
78856;SDS011;68207;50.078;19.936;2023-05-07T01:30:08;15.80;;;11.30;;
78856;SDS011;68207;50.078;19.936;2023-05-07T01:32:41;18.40;;;10.70;;
78856;SDS011;68207;50.078;19.936;2023-05-07T01:35:12;15.40;;;10.50;;
78856;SDS011;68207;50.078;19.936;2023-05-07T01:37:40;17.10;;;11.80;;
78856;SDS011;68207;50.078;19.936;2023-05-07T01:40:06;20.70;;;12.50;;
78856;SDS011;68207;50.078;19.936;2023-05-07T01:42:32;20.80;;;13.30;;
78856;SDS011;68207;50.078;19.936;2023-05-07T01:44:57;19.20;;;12.90;;
78856;SDS011;68207;50.078;19.936;2023-05-07T01:47:23;17.00;;;12.30;;
78856;SDS011;68207;50.078;19.936;2023-05-07T01:49:50;16.30;;;11.10;;
78856;SDS011;68207;50.078;19.936;2023-05-07T01:52:15;18.80;;;12.40;;
78856;SDS011;68207;50.078;19.936;2023-05-07T01:54:41;15.80;;;11.00;;
78856;SDS011;68207;50.078;19.936;2023-05-07T01:57:06;17.20;;;11.40;;
78856;SDS011;68207;50.078;19.936;2023-05-07T01:59:31;17.70;;;12.30;;
78856;SDS011;68207;50.078;19.936;2023-05-07T02:01:57;20.50;;;12.50;;
78856;SDS011;68207;50.078;19.936;2023-05-07T02:04:22;14.70;;;11.00;;
78856;SDS011;68207;50.078;19.936;2023-05-07T02:06:47;17.10;;;11.00;;
78856;SDS011;68207;50.078;19.936;2023-05-07T02:09:13;14.20;;;10.50;;
78856;SDS011;68207;50.078;19.936;2023-05-07T02:11:40;14.00;;;9.80;;
78856;SDS011;68207;50.078;19.936;2023-05-07T02:14:05;13.30;;;9.90;;
78856;SDS011;68207;50.078;19.936;2023-05-07T02:16:34;16.50;;;10.50;;
78856;SDS011;68207;50.078;19.936;2023-05-07T02:18:59;12.50;;;9.60;;
78856;SDS011;68207;50.078;19.936;2023-05-07T02:21:24;13.70;;;9.50;;
78856;SDS011;68207;50.078;19.936;2023-05-07T02:23:50;12.20;;;8.60;;
78856;SDS011;68207;50.078;19.936;2023-05-07T02:26:15;14.50;;;9.30;;
78856;SDS011;68207;50.078;19.936;2023-05-07T02:28:40;11.90;;;8.50;;
78856;SDS011;68207;50.078;19.936;2023-05-07T02:31:06;14.60;;;9.10;;
78856;SDS011;68207;50.078;19.936;2023-05-07T02:33:31;13.40;;;9.20;;
78856;SDS011;68207;50.078;19.936;2023-05-07T02:35:57;11.20;;;8.80;;
78856;SDS011;68207;50.078;19.936;2023-05-07T02:38:29;12.40;;;8.40;;
78856;SDS011;68207;50.078;19.936;2023-05-07T02:40:55;12.50;;;8.90;;
78856;SDS011;68207;50.078;19.936;2023-05-07T02:43:20;10.50;;;7.90;;
78856;SDS011;68207;50.078;19.936;2023-05-07T02:45:45;12.00;;;8.40;;
78856;SDS011;68207;50.078;19.936;2023-05-07T02:48:10;11.20;;;7.90;;
78856;SDS011;68207;50.078;19.936;2023-05-07T02:50:36;9.70;;;6.80;;
78856;SDS011;68207;50.078;19.936;2023-05-07T02:53:01;10.40;;;7.70;;
78856;SDS011;68207;50.078;19.936;2023-05-07T02:55:26;10.20;;;7.20;;
78856;SDS011;68207;50.078;19.936;2023-05-07T02:57:52;10.50;;;6.70;;
78856;SDS011;68207;50.078;19.936;2023-05-07T03:00:17;9.00;;;6.70;;
78856;SDS011;68207;50.078;19.936;2023-05-07T03:02:46;9.30;;;7.10;;
78856;SDS011;68207;50.078;19.936;2023-05-07T03:05:12;10.40;;;7.10;;
78856;SDS011;68207;50.078;19.936;2023-05-07T03:07:38;8.20;;;5.80;;
78856;SDS011;68207;50.078;19.936;2023-05-07T03:10:04;7.90;;;5.70;;
78856;SDS011;68207;50.078;19.936;2023-05-07T03:14:56;7.20;;;5.10;;
78856;SDS011;68207;50.078;19.936;2023-05-07T03:17:21;6.90;;;4.40;;
78856;SDS011;68207;50.078;19.936;2023-05-07T03:19:47;6.80;;;4.60;;
78856;SDS011;68207;50.078;19.936;2023-05-07T03:22:12;7.00;;;5.10;;
78856;SDS011;68207;50.078;19.936;2023-05-07T03:24:37;5.90;;;4.40;;
78856;SDS011;68207;50.078;19.936;2023-05-07T03:27:03;6.40;;;4.60;;
78856;SDS011;68207;50.078;19.936;2023-05-07T03:29:28;6.60;;;3.80;;
78856;SDS011;68207;50.078;19.936;2023-05-07T03:31:53;4.90;;;3.40;;
78856;SDS011;68207;50.078;19.936;2023-05-07T03:34:19;4.80;;;3.20;;
78856;SDS011;68207;50.078;19.936;2023-05-07T03:36:47;5.20;;;4.10;;
78856;SDS011;68207;50.078;19.936;2023-05-07T03:41:38;4.90;;;3.50;;
78856;SDS011;68207;50.078;19.936;2023-05-07T03:44:03;5.20;;;3.40;;
78856;SDS011;68207;50.078;19.936;2023-05-07T03:46:29;4.60;;;2.90;;
78856;SDS011;68207;50.078;19.936;2023-05-07T03:48:54;4.50;;;2.70;;
78856;SDS011;68207;50.078;19.936;2023-05-07T03:51:20;5.20;;;2.70;;
78856;SDS011;68207;50.078;19.936;2023-05-07T03:53:45;4.90;;;2.80;;
78856;SDS011;68207;50.078;19.936;2023-05-07T03:56:10;3.40;;;2.50;;
78856;SDS011;68207;50.078;19.936;2023-05-07T03:58:36;4.20;;;2.70;;
78856;SDS011;68207;50.078;19.936;2023-05-07T04:01:01;4.10;;;2.50;;
78856;SDS011;68207;50.078;19.936;2023-05-07T04:03:27;5.60;;;2.70;;
78856;SDS011;68207;50.078;19.936;2023-05-07T04:05:52;3.10;;;2.60;;
78856;SDS011;68207;50.078;19.936;2023-05-07T04:08:17;3.40;;;2.30;;
78856;SDS011;68207;50.078;19.936;2023-05-07T04:10:42;3.90;;;2.60;;
78856;SDS011;68207;50.078;19.936;2023-05-07T04:13:08;4.20;;;2.50;;
78856;SDS011;68207;50.078;19.936;2023-05-07T04:15:33;3.50;;;2.40;;
78856;SDS011;68207;50.078;19.936;2023-05-07T04:17:58;3.90;;;2.80;;
78856;SDS011;68207;50.078;19.936;2023-05-07T04:20:23;4.30;;;2.80;;
78856;SDS011;68207;50.078;19.936;2023-05-07T04:22:49;3.10;;;2.40;;
78856;SDS011;68207;50.078;19.936;2023-05-07T04:25:15;4.40;;;2.50;;
78856;SDS011;68207;50.078;19.936;2023-05-07T04:27:41;3.60;;;2.50;;
78856;SDS011;68207;50.078;19.936;2023-05-07T04:30:06;4.40;;;2.60;;
78856;SDS011;68207;50.078;19.936;2023-05-07T04:32:32;3.50;;;2.30;;
78856;SDS011;68207;50.078;19.936;2023-05-07T04:34:57;3.10;;;2.20;;
78856;SDS011;68207;50.078;19.936;2023-05-07T04:37:22;3.60;;;2.70;;
78856;SDS011;68207;50.078;19.936;2023-05-07T04:39:48;3.60;;;2.60;;
78856;SDS011;68207;50.078;19.936;2023-05-07T04:42:17;3.80;;;2.60;;
78856;SDS011;68207;50.078;19.936;2023-05-07T04:44:44;4.80;;;2.50;;
78856;SDS011;68207;50.078;19.936;2023-05-07T04:49:35;3.30;;;2.40;;
78856;SDS011;68207;50.078;19.936;2023-05-07T04:52:02;3.80;;;2.50;;
78856;SDS011;68207;50.078;19.936;2023-05-07T04:54:28;4.00;;;2.60;;
78856;SDS011;68207;50.078;19.936;2023-05-07T04:56:53;3.60;;;2.20;;
78856;SDS011;68207;50.078;19.936;2023-05-07T04:59:18;3.90;;;2.60;;
78856;SDS011;68207;50.078;19.936;2023-05-07T05:01:44;5.30;;;2.80;;
78856;SDS011;68207;50.078;19.936;2023-05-07T05:04:09;4.30;;;2.40;;
78856;SDS011;68207;50.078;19.936;2023-05-07T05:06:35;3.00;;;2.20;;
78856;SDS011;68207;50.078;19.936;2023-05-07T05:09:00;3.40;;;2.20;;
78856;SDS011;68207;50.078;19.936;2023-05-07T05:11:25;4.00;;;2.20;;
78856;SDS011;68207;50.078;19.936;2023-05-07T05:13:51;3.60;;;2.80;;
78856;SDS011;68207;50.078;19.936;2023-05-07T05:16:16;4.20;;;2.30;;
78856;SDS011;68207;50.078;19.936;2023-05-07T05:18:41;3.30;;;2.00;;
78856;SDS011;68207;50.078;19.936;2023-05-07T05:21:07;3.50;;;2.00;;
78856;SDS011;68207;50.078;19.936;2023-05-07T05:23:32;2.70;;;2.10;;
78856;SDS011;68207;50.078;19.936;2023-05-07T05:25:57;5.50;;;2.10;;
78856;SDS011;68207;50.078;19.936;2023-05-07T05:28:23;2.90;;;1.90;;
78856;SDS011;68207;50.078;19.936;2023-05-07T05:30:49;2.50;;;1.80;;
78856;SDS011;68207;50.078;19.936;2023-05-07T05:33:14;2.70;;;2.10;;
78856;SDS011;68207;50.078;19.936;2023-05-07T05:35:40;3.40;;;2.20;;
78856;SDS011;68207;50.078;19.936;2023-05-07T05:38:05;3.20;;;2.20;;
78856;SDS011;68207;50.078;19.936;2023-05-07T05:40:31;3.30;;;2.20;;
78856;SDS011;68207;50.078;19.936;2023-05-07T05:42:57;4.60;;;2.10;;
78856;SDS011;68207;50.078;19.936;2023-05-07T05:45:22;3.30;;;2.00;;
78856;SDS011;68207;50.078;19.936;2023-05-07T05:47:47;3.30;;;1.80;;
78856;SDS011;68207;50.078;19.936;2023-05-07T05:50:13;2.10;;;1.50;;
78856;SDS011;68207;50.078;19.936;2023-05-07T05:52:40;3.90;;;2.30;;
78856;SDS011;68207;50.078;19.936;2023-05-07T05:55:06;4.10;;;2.30;;
78856;SDS011;68207;50.078;19.936;2023-05-07T05:57:31;3.80;;;2.60;;
78856;SDS011;68207;50.078;19.936;2023-05-07T05:59:57;3.10;;;2.00;;
78856;SDS011;68207;50.078;19.936;2023-05-07T06:02:22;3.60;;;2.10;;
78856;SDS011;68207;50.078;19.936;2023-05-07T06:04:48;2.70;;;2.00;;
78856;SDS011;68207;50.078;19.936;2023-05-07T06:07:13;3.00;;;2.20;;
78856;SDS011;68207;50.078;19.936;2023-05-07T06:09:38;3.20;;;2.30;;
78856;SDS011;68207;50.078;19.936;2023-05-07T06:12:04;3.30;;;2.30;;
78856;SDS011;68207;50.078;19.936;2023-05-07T06:14:29;3.10;;;2.10;;
78856;SDS011;68207;50.078;19.936;2023-05-07T06:16:55;3.40;;;2.20;;
78856;SDS011;68207;50.078;19.936;2023-05-07T06:19:20;3.10;;;2.40;;
78856;SDS011;68207;50.078;19.936;2023-05-07T06:21:48;3.30;;;2.10;;
78856;SDS011;68207;50.078;19.936;2023-05-07T06:24:14;3.60;;;2.20;;
78856;SDS011;68207;50.078;19.936;2023-05-07T06:26:39;3.20;;;2.10;;
78856;SDS011;68207;50.078;19.936;2023-05-07T06:29:05;4.50;;;2.50;;
78856;SDS011;68207;50.078;19.936;2023-05-07T06:31:31;3.60;;;2.50;;
78856;SDS011;68207;50.078;19.936;2023-05-07T06:33:57;4.60;;;2.60;;
78856;SDS011;68207;50.078;19.936;2023-05-07T06:36:22;3.60;;;3.00;;
78856;SDS011;68207;50.078;19.936;2023-05-07T06:38:48;3.80;;;2.50;;
78856;SDS011;68207;50.078;19.936;2023-05-07T06:41:13;3.40;;;2.10;;
78856;SDS011;68207;50.078;19.936;2023-05-07T06:43:38;3.90;;;2.20;;
78856;SDS011;68207;50.078;19.936;2023-05-07T06:46:04;4.10;;;2.10;;
78856;SDS011;68207;50.078;19.936;2023-05-07T06:48:30;3.50;;;2.10;;
78856;SDS011;68207;50.078;19.936;2023-05-07T06:50:55;2.80;;;2.10;;
78856;SDS011;68207;50.078;19.936;2023-05-07T06:53:22;3.10;;;2.30;;
78856;SDS011;68207;50.078;19.936;2023-05-07T06:55:48;3.30;;;2.20;;
78856;SDS011;68207;50.078;19.936;2023-05-07T06:58:13;4.00;;;2.40;;
78856;SDS011;68207;50.078;19.936;2023-05-07T07:00:38;3.40;;;2.20;;
78856;SDS011;68207;50.078;19.936;2023-05-07T07:03:05;5.10;;;2.40;;
78856;SDS011;68207;50.078;19.936;2023-05-07T07:05:31;3.30;;;2.10;;
78856;SDS011;68207;50.078;19.936;2023-05-07T07:07:56;3.40;;;2.30;;
78856;SDS011;68207;50.078;19.936;2023-05-07T07:10:21;3.10;;;1.90;;
78856;SDS011;68207;50.078;19.936;2023-05-07T07:12:48;3.20;;;2.00;;
78856;SDS011;68207;50.078;19.936;2023-05-07T07:15:14;3.60;;;2.40;;
78856;SDS011;68207;50.078;19.936;2023-05-07T07:17:39;3.20;;;2.30;;
78856;SDS011;68207;50.078;19.936;2023-05-07T07:20:05;3.60;;;2.20;;
78856;SDS011;68207;50.078;19.936;2023-05-07T07:22:30;3.30;;;2.50;;
78856;SDS011;68207;50.078;19.936;2023-05-07T07:24:56;4.10;;;3.00;;
78856;SDS011;68207;50.078;19.936;2023-05-07T07:27:21;4.40;;;2.40;;
78856;SDS011;68207;50.078;19.936;2023-05-07T07:29:46;4.50;;;2.10;;
78856;SDS011;68207;50.078;19.936;2023-05-07T07:32:12;3.10;;;2.10;;
78856;SDS011;68207;50.078;19.936;2023-05-07T07:34:37;4.40;;;2.90;;
78856;SDS011;68207;50.078;19.936;2023-05-07T07:37:02;3.20;;;2.40;;
78856;SDS011;68207;50.078;19.936;2023-05-07T07:39:31;3.00;;;2.10;;
78856;SDS011;68207;50.078;19.936;2023-05-07T07:41:57;2.70;;;2.00;;
78856;SDS011;68207;50.078;19.936;2023-05-07T07:44:22;4.10;;;2.40;;
78856;SDS011;68207;50.078;19.936;2023-05-07T07:46:47;3.60;;;2.50;;
78856;SDS011;68207;50.078;19.936;2023-05-07T07:49:12;3.60;;;2.10;;
78856;SDS011;68207;50.078;19.936;2023-05-07T07:51:38;2.60;;;2.00;;
78856;SDS011;68207;50.078;19.936;2023-05-07T07:54:03;3.30;;;2.40;;
78856;SDS011;68207;50.078;19.936;2023-05-07T07:56:29;3.00;;;2.20;;
78856;SDS011;68207;50.078;19.936;2023-05-07T07:58:54;3.10;;;2.50;;
78856;SDS011;68207;50.078;19.936;2023-05-07T08:01:19;3.80;;;2.70;;
78856;SDS011;68207;50.078;19.936;2023-05-07T08:03:45;4.20;;;2.60;;
78856;SDS011;68207;50.078;19.936;2023-05-07T08:06:10;3.60;;;2.70;;
78856;SDS011;68207;50.078;19.936;2023-05-07T08:08:35;3.50;;;2.90;;
78856;SDS011;68207;50.078;19.936;2023-05-07T08:11:01;3.30;;;2.60;;
78856;SDS011;68207;50.078;19.936;2023-05-07T08:13:26;3.40;;;2.60;;
78856;SDS011;68207;50.078;19.936;2023-05-07T08:15:51;3.50;;;2.50;;
78856;SDS011;68207;50.078;19.936;2023-05-07T08:18:17;3.70;;;2.50;;
78856;SDS011;68207;50.078;19.936;2023-05-07T08:20:42;3.70;;;2.70;;
78856;SDS011;68207;50.078;19.936;2023-05-07T08:23:08;3.60;;;2.50;;
78856;SDS011;68207;50.078;19.936;2023-05-07T08:25:33;6.50;;;3.20;;
78856;SDS011;68207;50.078;19.936;2023-05-07T08:27:59;4.60;;;3.00;;
78856;SDS011;68207;50.078;19.936;2023-05-07T08:30:25;4.50;;;3.60;;
78856;SDS011;68207;50.078;19.936;2023-05-07T08:32:50;4.20;;;3.50;;
78856;SDS011;68207;50.078;19.936;2023-05-07T08:35:16;6.40;;;3.80;;
78856;SDS011;68207;50.078;19.936;2023-05-07T08:37:41;5.80;;;3.80;;
78856;SDS011;68207;50.078;19.936;2023-05-07T08:40:06;4.20;;;3.70;;
78856;SDS011;68207;50.078;19.936;2023-05-07T08:42:32;5.00;;;3.70;;
78856;SDS011;68207;50.078;19.936;2023-05-07T08:45:01;5.10;;;4.40;;
78856;SDS011;68207;50.078;19.936;2023-05-07T08:47:42;5.80;;;4.40;;
78856;SDS011;68207;50.078;19.936;2023-05-07T08:50:12;7.00;;;4.70;;
78856;SDS011;68207;50.078;19.936;2023-05-07T08:52:38;4.80;;;4.20;;
78856;SDS011;68207;50.078;19.936;2023-05-07T08:55:05;5.60;;;4.60;;
78856;SDS011;68207;50.078;19.936;2023-05-07T08:57:31;5.40;;;4.10;;
78856;SDS011;68207;50.078;19.936;2023-05-07T08:59:56;6.20;;;4.00;;
78856;SDS011;68207;50.078;19.936;2023-05-07T09:02:22;5.30;;;4.20;;
78856;SDS011;68207;50.078;19.936;2023-05-07T09:04:47;4.60;;;3.50;;
78856;SDS011;68207;50.078;19.936;2023-05-07T09:07:12;4.30;;;3.10;;
78856;SDS011;68207;50.078;19.936;2023-05-07T09:09:38;8.00;;;4.60;;
78856;SDS011;68207;50.078;19.936;2023-05-07T09:12:03;7.90;;;4.20;;
78856;SDS011;68207;50.078;19.936;2023-05-07T09:14:29;4.70;;;4.00;;
78856;SDS011;68207;50.078;19.936;2023-05-07T09:16:55;5.00;;;4.10;;
78856;SDS011;68207;50.078;19.936;2023-05-07T09:19:25;5.30;;;4.10;;
78856;SDS011;68207;50.078;19.936;2023-05-07T09:21:57;5.00;;;3.50;;
78856;SDS011;68207;50.078;19.936;2023-05-07T09:24:27;4.20;;;3.10;;
78856;SDS011;68207;50.078;19.936;2023-05-07T09:26:59;3.70;;;2.90;;
78856;SDS011;68207;50.078;19.936;2023-05-07T09:29:26;4.20;;;2.80;;
78856;SDS011;68207;50.078;19.936;2023-05-07T09:31:53;5.30;;;3.70;;
78856;SDS011;68207;50.078;19.936;2023-05-07T09:34:19;5.10;;;3.10;;
78856;SDS011;68207;50.078;19.936;2023-05-07T09:36:44;6.30;;;3.70;;
78856;SDS011;68207;50.078;19.936;2023-05-07T09:39:10;4.50;;;3.50;;
78856;SDS011;68207;50.078;19.936;2023-05-07T09:41:43;5.10;;;3.20;;
78856;SDS011;68207;50.078;19.936;2023-05-07T09:44:10;5.30;;;3.10;;
78856;SDS011;68207;50.078;19.936;2023-05-07T09:46:36;3.90;;;2.70;;
78856;SDS011;68207;50.078;19.936;2023-05-07T09:49:03;4.50;;;3.00;;
78856;SDS011;68207;50.078;19.936;2023-05-07T09:51:36;4.00;;;2.80;;
78856;SDS011;68207;50.078;19.936;2023-05-07T09:54:06;4.70;;;3.60;;
78856;SDS011;68207;50.078;19.936;2023-05-07T09:56:32;4.10;;;3.20;;
78856;SDS011;68207;50.078;19.936;2023-05-07T09:59:00;4.40;;;3.10;;
78856;SDS011;68207;50.078;19.936;2023-05-07T10:01:26;5.40;;;3.60;;
78856;SDS011;68207;50.078;19.936;2023-05-07T10:03:52;4.10;;;2.70;;
78856;SDS011;68207;50.078;19.936;2023-05-07T10:06:19;4.20;;;2.80;;
78856;SDS011;68207;50.078;19.936;2023-05-07T10:08:45;4.00;;;3.10;;
78856;SDS011;68207;50.078;19.936;2023-05-07T10:11:12;4.70;;;3.00;;
78856;SDS011;68207;50.078;19.936;2023-05-07T10:13:37;4.80;;;3.40;;
78856;SDS011;68207;50.078;19.936;2023-05-07T10:16:05;4.80;;;3.60;;
78856;SDS011;68207;50.078;19.936;2023-05-07T10:18:32;5.80;;;3.40;;
78856;SDS011;68207;50.078;19.936;2023-05-07T10:23:29;7.10;;;3.90;;
78856;SDS011;68207;50.078;19.936;2023-05-07T10:25:56;5.00;;;3.60;;
78856;SDS011;68207;50.078;19.936;2023-05-07T10:28:23;4.60;;;3.40;;
78856;SDS011;68207;50.078;19.936;2023-05-07T10:30:59;8.30;;;3.40;;
78856;SDS011;68207;50.078;19.936;2023-05-07T10:33:29;4.70;;;3.40;;
78856;SDS011;68207;50.078;19.936;2023-05-07T10:38:25;5.70;;;3.10;;
78856;SDS011;68207;50.078;19.936;2023-05-07T10:40:52;5.40;;;3.90;;
78856;SDS011;68207;50.078;19.936;2023-05-07T10:43:17;5.10;;;3.70;;
78856;SDS011;68207;50.078;19.936;2023-05-07T10:45:43;6.00;;;4.10;;
78856;SDS011;68207;50.078;19.936;2023-05-07T10:48:10;6.30;;;4.30;;
78856;SDS011;68207;50.078;19.936;2023-05-07T10:50:42;5.30;;;3.30;;
78856;SDS011;68207;50.078;19.936;2023-05-07T10:55:43;3.80;;;3.10;;
78856;SDS011;68207;50.078;19.936;2023-05-07T10:58:27;4.80;;;3.40;;
78856;SDS011;68207;50.078;19.936;2023-05-07T11:01:00;3.80;;;3.30;;
78856;SDS011;68207;50.078;19.936;2023-05-07T11:03:26;4.30;;;3.40;;
78856;SDS011;68207;50.078;19.936;2023-05-07T11:11:16;5.40;;;4.00;;
78856;SDS011;68207;50.078;19.936;2023-05-07T11:13:48;5.70;;;4.30;;
78856;SDS011;68207;50.078;19.936;2023-05-07T11:18:51;4.90;;;3.60;;
78856;SDS011;68207;50.078;19.936;2023-05-07T11:21:34;4.70;;;2.80;;
78856;SDS011;68207;50.078;19.936;2023-05-07T11:24:01;5.60;;;3.00;;
78856;SDS011;68207;50.078;19.936;2023-05-07T11:26:28;4.20;;;2.90;;
78856;SDS011;68207;50.078;19.936;2023-05-07T11:28:56;3.60;;;2.60;;
78856;SDS011;68207;50.078;19.936;2023-05-07T11:31:25;4.10;;;2.90;;
78856;SDS011;68207;50.078;19.936;2023-05-07T11:33:53;4.80;;;3.50;;
78856;SDS011;68207;50.078;19.936;2023-05-07T11:36:20;5.40;;;3.90;;
78856;SDS011;68207;50.078;19.936;2023-05-07T11:38:46;4.50;;;3.70;;
78856;SDS011;68207;50.078;19.936;2023-05-07T11:41:12;5.30;;;3.40;;
78856;SDS011;68207;50.078;19.936;2023-05-07T11:43:37;4.00;;;3.10;;
78856;SDS011;68207;50.078;19.936;2023-05-07T11:46:08;3.60;;;2.50;;
78856;SDS011;68207;50.078;19.936;2023-05-07T11:48:35;3.70;;;2.30;;
78856;SDS011;68207;50.078;19.936;2023-05-07T11:51:02;2.90;;;2.50;;
78856;SDS011;68207;50.078;19.936;2023-05-07T11:53:35;3.30;;;2.30;;
78856;SDS011;68207;50.078;19.936;2023-05-07T11:56:16;3.10;;;2.30;;
78856;SDS011;68207;50.078;19.936;2023-05-07T11:58:42;3.20;;;2.50;;
78856;SDS011;68207;50.078;19.936;2023-05-07T12:01:09;3.40;;;2.30;;
78856;SDS011;68207;50.078;19.936;2023-05-07T12:03:36;3.10;;;2.30;;
78856;SDS011;68207;50.078;19.936;2023-05-07T12:06:02;4.20;;;3.10;;
78856;SDS011;68207;50.078;19.936;2023-05-07T12:08:31;4.20;;;3.00;;
78856;SDS011;68207;50.078;19.936;2023-05-07T12:10:56;4.50;;;2.90;;
78856;SDS011;68207;50.078;19.936;2023-05-07T12:13:22;3.60;;;2.80;;
78856;SDS011;68207;50.078;19.936;2023-05-07T12:15:52;3.60;;;2.60;;
78856;SDS011;68207;50.078;19.936;2023-05-07T12:18:19;4.60;;;3.10;;
78856;SDS011;68207;50.078;19.936;2023-05-07T12:20:45;3.20;;;2.50;;
78856;SDS011;68207;50.078;19.936;2023-05-07T12:23:11;4.60;;;2.80;;
78856;SDS011;68207;50.078;19.936;2023-05-07T12:25:38;3.30;;;2.10;;
78856;SDS011;68207;50.078;19.936;2023-05-07T12:28:05;4.00;;;2.40;;
78856;SDS011;68207;50.078;19.936;2023-05-07T12:30:36;3.90;;;2.60;;
78856;SDS011;68207;50.078;19.936;2023-05-07T12:33:02;4.00;;;2.30;;
78856;SDS011;68207;50.078;19.936;2023-05-07T12:35:30;2.90;;;2.20;;
78856;SDS011;68207;50.078;19.936;2023-05-07T12:37:58;3.40;;;2.60;;
78856;SDS011;68207;50.078;19.936;2023-05-07T12:40:29;5.50;;;3.20;;
78856;SDS011;68207;50.078;19.936;2023-05-07T12:43:01;4.50;;;3.00;;
78856;SDS011;68207;50.078;19.936;2023-05-07T12:45:26;4.00;;;2.90;;
78856;SDS011;68207;50.078;19.936;2023-05-07T12:47:51;4.20;;;2.80;;
78856;SDS011;68207;50.078;19.936;2023-05-07T12:50:17;3.90;;;2.70;;
78856;SDS011;68207;50.078;19.936;2023-05-07T12:52:43;4.10;;;2.80;;
78856;SDS011;68207;50.078;19.936;2023-05-07T12:55:09;2.70;;;2.30;;
78856;SDS011;68207;50.078;19.936;2023-05-07T12:57:42;3.50;;;2.70;;
78856;SDS011;68207;50.078;19.936;2023-05-07T13:00:10;4.70;;;2.60;;
78856;SDS011;68207;50.078;19.936;2023-05-07T13:02:40;3.40;;;2.40;;
78856;SDS011;68207;50.078;19.936;2023-05-07T13:05:06;2.90;;;2.50;;
78856;SDS011;68207;50.078;19.936;2023-05-07T13:07:32;2.90;;;2.60;;
78856;SDS011;68207;50.078;19.936;2023-05-07T13:09:57;3.30;;;2.30;;
78856;SDS011;68207;50.078;19.936;2023-05-07T13:12:23;2.90;;;2.20;;
78856;SDS011;68207;50.078;19.936;2023-05-07T13:14:48;3.90;;;2.20;;
78856;SDS011;68207;50.078;19.936;2023-05-07T13:17:13;8.60;;;3.50;;
78856;SDS011;68207;50.078;19.936;2023-05-07T13:19:38;4.10;;;3.20;;
78856;SDS011;68207;50.078;19.936;2023-05-07T13:22:04;4.60;;;2.90;;
78856;SDS011;68207;50.078;19.936;2023-05-07T13:24:29;4.10;;;3.00;;
78856;SDS011;68207;50.078;19.936;2023-05-07T13:26:54;4.80;;;3.10;;
78856;SDS011;68207;50.078;19.936;2023-05-07T13:29:20;3.50;;;3.10;;
78856;SDS011;68207;50.078;19.936;2023-05-07T13:31:50;3.40;;;2.50;;
78856;SDS011;68207;50.078;19.936;2023-05-07T13:34:15;4.30;;;3.20;;
78856;SDS011;68207;50.078;19.936;2023-05-07T13:36:41;3.40;;;2.20;;
78856;SDS011;68207;50.078;19.936;2023-05-07T13:39:07;3.80;;;2.60;;
78856;SDS011;68207;50.078;19.936;2023-05-07T13:41:32;2.80;;;2.30;;
78856;SDS011;68207;50.078;19.936;2023-05-07T13:43:57;4.10;;;2.60;;
78856;SDS011;68207;50.078;19.936;2023-05-07T13:46:23;3.60;;;2.40;;
78856;SDS011;68207;50.078;19.936;2023-05-07T13:48:48;2.80;;;2.50;;
78856;SDS011;68207;50.078;19.936;2023-05-07T13:51:13;3.50;;;2.80;;
78856;SDS011;68207;50.078;19.936;2023-05-07T13:53:39;4.10;;;2.50;;
78856;SDS011;68207;50.078;19.936;2023-05-07T13:56:05;5.30;;;3.30;;
78856;SDS011;68207;50.078;19.936;2023-05-07T13:58:30;5.10;;;3.20;;
78856;SDS011;68207;50.078;19.936;2023-05-07T14:00:55;4.90;;;3.50;;
78856;SDS011;68207;50.078;19.936;2023-05-07T14:03:21;4.40;;;3.20;;
78856;SDS011;68207;50.078;19.936;2023-05-07T14:05:46;3.80;;;3.10;;
78856;SDS011;68207;50.078;19.936;2023-05-07T14:08:12;5.20;;;3.40;;
78856;SDS011;68207;50.078;19.936;2023-05-07T14:10:38;5.30;;;2.80;;
78856;SDS011;68207;50.078;19.936;2023-05-07T14:13:04;3.50;;;2.90;;
78856;SDS011;68207;50.078;19.936;2023-05-07T14:15:29;4.10;;;3.40;;
78856;SDS011;68207;50.078;19.936;2023-05-07T14:17:55;4.80;;;3.60;;
78856;SDS011;68207;50.078;19.936;2023-05-07T14:20:22;3.60;;;2.70;;
78856;SDS011;68207;50.078;19.936;2023-05-07T14:22:47;4.10;;;3.00;;
78856;SDS011;68207;50.078;19.936;2023-05-07T14:25:12;4.00;;;3.00;;
78856;SDS011;68207;50.078;19.936;2023-05-07T14:27:38;6.10;;;4.00;;
78856;SDS011;68207;50.078;19.936;2023-05-07T14:30:04;4.20;;;3.40;;
78856;SDS011;68207;50.078;19.936;2023-05-07T14:32:29;4.80;;;3.90;;
78856;SDS011;68207;50.078;19.936;2023-05-07T14:34:55;5.20;;;4.30;;
78856;SDS011;68207;50.078;19.936;2023-05-07T14:37:20;5.20;;;3.70;;
78856;SDS011;68207;50.078;19.936;2023-05-07T14:39:45;4.30;;;3.50;;
78856;SDS011;68207;50.078;19.936;2023-05-07T14:42:11;5.30;;;3.80;;
78856;SDS011;68207;50.078;19.936;2023-05-07T14:44:37;4.80;;;3.30;;
78856;SDS011;68207;50.078;19.936;2023-05-07T14:47:05;4.30;;;3.20;;